Time;durP1;ratioP1;P1;durP2;ratioP2;P2;SDS_P1;SDS_P2;PMS_P1;PMS_P2;Temp;Humidity;BMP_temperature;BMP_pressure;BME280_temperature;BME280_humidity;BME280_pressure;Samples;Min_cycle;Max_cycle;Signal;HPM_P1;HPM_P2
2021/10/05 00:00:34;;;;;;;13.10;8.45;;;12.10;99.90;;;;;;5010582;28;20049;-69
2021/10/05 00:03:01;;;;;;;13.90;8.48;;;12.10;99.90;;;;;;5010934;28;20055;-70
2021/10/05 00:05:28;;;;;;;13.95;8.60;;;12.10;99.90;;;;;;5009967;28;20135;-69
2021/10/05 00:07:55;;;;;;;14.07;8.45;;;12.10;99.90;;;;;;5011343;28;20140;-70
2021/10/05 00:10:22;;;;;;;13.95;8.35;;;12.10;99.90;;;;;;5011802;28;20093;-70
2021/10/05 00:12:49;;;;;;;13.70;8.50;;;12.10;99.90;;;;;;5010907;28;20045;-72
2021/10/05 00:15:18;;;;;;;13.82;8.25;;;12.10;99.90;;;;;;5008417;28;20048;-69
2021/10/05 00:17:45;;;;;;;18.08;9.57;;;12.20;99.90;;;;;;5010887;28;20575;-70
2021/10/05 00:20:14;;;;;;;16.08;9.45;;;12.20;99.90;;;;;;5010200;28;20150;-69
2021/10/05 00:22:41;;;;;;;12.00;7.97;;;12.20;99.90;;;;;;5010004;28;20053;-69
2021/10/05 00:25:09;;;;;;;16.83;9.38;;;12.20;99.90;;;;;;5010804;28;20067;-69
2021/10/05 00:27:36;;;;;;;13.55;8.57;;;12.20;99.90;;;;;;5009819;28;20049;-71
2021/10/05 00:30:06;;;;;;;12.13;8.15;;;12.20;99.90;;;;;;5010319;28;20107;-69
2021/10/05 00:32:34;;;;;;;11.85;8.57;;;12.20;99.90;;;;;;5009129;28;20060;-69
2021/10/05 00:35:01;;;;;;;13.27;9.00;;;12.30;99.90;;;;;;5008857;28;20709;-72
2021/10/05 00:37:29;;;;;;;12.27;8.27;;;12.20;99.90;;;;;;5009164;28;20513;-72
2021/10/05 00:39:55;;;;;;;11.20;7.15;;;12.20;99.90;;;;;;5009692;28;20502;-72
2021/10/05 00:42:23;;;;;;;11.95;7.75;;;12.20;99.90;;;;;;5010187;28;20053;-69
2021/10/05 00:44:50;;;;;;;12.45;7.32;;;12.20;99.90;;;;;;5010195;28;20046;-69
2021/10/05 00:47:18;;;;;;;12.02;8.05;;;12.30;99.90;;;;;;5009177;28;20064;-71
2021/10/05 00:49:49;;;;;;;13.77;8.10;;;12.20;99.90;;;;;;5010074;28;20049;-70
2021/10/05 00:52:18;;;;;;;11.98;8.32;;;12.20;99.90;;;;;;5009727;28;20061;-69
2021/10/05 00:54:47;;;;;;;11.93;7.95;;;12.20;99.90;;;;;;5009653;28;20051;-69
2021/10/05 00:57:14;;;;;;;12.82;7.03;;;12.20;99.90;;;;;;5009661;28;20053;-71
2021/10/05 00:59:41;;;;;;;11.93;7.43;;;12.20;99.90;;;;;;5010162;28;20064;-69
2021/10/05 01:02:10;;;;;;;11.20;7.53;;;12.20;99.90;;;;;;5009259;28;20053;-69
2021/10/05 01:04:37;;;;;;;12.30;7.50;;;12.20;99.90;;;;;;5010145;28;20179;-70
2021/10/05 01:07:08;;;;;;;13.75;7.32;;;12.20;99.90;;;;;;5008816;28;20053;-69
2021/10/05 01:09:36;;;;;;;12.48;7.28;;;12.20;99.90;;;;;;5010780;28;20045;-71
2021/10/05 01:12:04;;;;;;;12.05;7.57;;;12.20;99.90;;;;;;5010833;28;20182;-71
2021/10/05 01:14:31;;;;;;;13.52;7.47;;;12.20;99.90;;;;;;5010056;28;20120;-72
2021/10/05 01:17:00;;;;;;;13.07;8.05;;;12.20;99.90;;;;;;5008759;28;20065;-69
2021/10/05 01:19:27;;;;;;;13.45;8.30;;;12.20;99.90;;;;;;5009939;28;20096;-70
2021/10/05 01:21:55;;;;;;;12.95;8.35;;;12.20;99.90;;;;;;5010015;28;20057;-70
2021/10/05 01:24:23;;;;;;;11.32;7.40;;;12.20;99.90;;;;;;5009933;28;20064;-69
2021/10/05 01:26:53;;;;;;;13.32;8.27;;;12.20;99.90;;;;;;5010102;28;20521;-69
2021/10/05 01:29:23;;;;;;;13.05;8.32;;;12.20;99.90;;;;;;5009262;28;20505;-71
2021/10/05 01:31:52;;;;;;;11.73;7.75;;;12.20;99.90;;;;;;5011065;28;20107;-71
2021/10/05 01:34:22;;;;;;;13.68;8.15;;;12.20;99.90;;;;;;5010302;28;20045;-69
2021/10/05 01:36:49;;;;;;;12.07;8.23;;;12.10;99.90;;;;;;5009875;28;20060;-71
2021/10/05 01:39:24;;;;;;;15.98;8.65;;;12.10;99.90;;;;;;5010583;28;20057;-69
2021/10/05 01:41:52;;;;;;;13.02;8.38;;;12.10;99.90;;;;;;5010050;28;20440;-69
2021/10/05 01:44:19;;;;;;;13.95;8.80;;;12.10;99.90;;;;;;5010684;28;20076;-69
2021/10/05 01:46:48;;;;;;;16.95;8.38;;;12.10;99.90;;;;;;5009424;28;20053;-69
2021/10/05 01:49:16;;;;;;;12.13;8.10;;;14.30;99.90;;;;;;5009955;28;20103;-69
2021/10/05 01:51:44;;;;;;;12.25;7.82;;;14.90;99.90;;;;;;5008898;28;20103;-70
2021/10/05 01:54:12;;;;;;;15.27;9.60;;;15.40;99.90;;;;;;5009832;28;20123;-70
2021/10/05 01:56:41;;;;;;;15.02;9.60;;;15.20;99.90;;;;;;5009298;28;20518;-70
2021/10/05 01:59:08;;;;;;;22.60;10.68;;;15.20;99.90;;;;;;5012802;28;20073;-70
2021/10/05 02:01:35;;;;;;;15.52;9.98;;;15.20;99.90;;;;;;5013520;28;20064;-69
2021/10/05 02:04:02;;;;;;;17.75;10.02;;;15.10;99.90;;;;;;5012694;28;20053;-69
2021/10/05 02:06:30;;;;;;;16.35;10.57;;;15.10;99.90;;;;;;5013094;28;20475;-71
2021/10/05 02:08:57;;;;;;;15.25;10.25;;;15.10;99.90;;;;;;5012963;28;20494;-71
2021/10/05 02:11:24;;;;;;;19.00;11.38;;;15.10;99.90;;;;;;5013749;28;20046;-69
2021/10/05 02:13:53;;;;;;;19.33;11.15;;;15.00;99.90;;;;;;5012753;28;20502;-72
2021/10/05 02:16:20;;;;;;;17.60;10.68;;;14.90;99.90;;;;;;5012823;28;20049;-72
2021/10/05 02:18:47;;;;;;;19.38;11.35;;;14.90;99.90;;;;;;5012917;28;20053;-69
2021/10/05 02:21:14;;;;;;;19.85;11.73;;;14.90;99.90;;;;;;5013049;28;20049;-72
2021/10/05 02:26:27;;;;;;;21.60;12.18;;;14.90;99.90;;;;;;5011353;28;20130;-69
2021/10/05 02:28:55;;;;;;;23.15;12.00;;;14.80;99.90;;;;;;5013041;28;20567;-69
2021/10/05 02:31:22;;;;;;;20.65;12.20;;;14.80;99.90;;;;;;5012764;28;20049;-69
2021/10/05 02:33:49;;;;;;;22.52;11.77;;;14.80;99.90;;;;;;5012085;28;20929;-71
2021/10/05 02:36:17;;;;;;;22.67;12.43;;;14.80;99.90;;;;;;5009896;28;20172;-68
2021/10/05 02:38:44;;;;;;;19.60;11.30;;;14.80;99.90;;;;;;5012371;28;20069;-70
2021/10/05 02:41:11;;;;;;;25.75;11.90;;;14.70;99.90;;;;;;5012499;28;20080;-74
2021/10/05 02:43:38;;;;;;;19.02;11.68;;;14.70;99.90;;;;;;5011322;28;20049;-69
2021/10/05 02:46:06;;;;;;;20.90;12.32;;;14.70;99.90;;;;;;5011777;28;20088;-70
2021/10/05 02:48:34;;;;;;;23.10;12.23;;;14.70;99.90;;;;;;5012711;28;20050;-70
2021/10/05 02:51:01;;;;;;;21.63;12.30;;;14.70;99.90;;;;;;5012660;28;20049;-70
2021/10/05 02:53:29;;;;;;;22.05;13.07;;;14.70;99.90;;;;;;5012140;28;20060;-70
2021/10/05 02:55:56;;;;;;;21.67;12.07;;;14.70;99.90;;;;;;5010629;28;20046;-72
2021/10/05 02:58:23;;;;;;;20.30;11.95;;;14.70;99.90;;;;;;5011978;28;20453;-70
2021/10/05 03:00:50;;;;;;;22.75;12.52;;;14.70;99.90;;;;;;5012593;28;20590;-73
2021/10/05 03:03:18;;;;;;;22.85;12.70;;;14.70;99.90;;;;;;5011784;28;20143;-70
2021/10/05 03:05:45;;;;;;;23.75;12.85;;;14.60;99.90;;;;;;5012474;28;20053;-70
2021/10/05 03:08:12;;;;;;;20.05;12.35;;;14.70;99.90;;;;;;5012077;28;20053;-72
2021/10/05 03:10:40;;;;;;;25.67;12.85;;;14.70;99.90;;;;;;5010396;28;20049;-70
2021/10/05 03:13:07;;;;;;;22.85;12.10;;;14.70;99.90;;;;;;5012750;28;20563;-70
2021/10/05 03:15:34;;;;;;;21.08;12.57;;;14.70;99.90;;;;;;5009998;28;20603;-73
2021/10/05 03:18:01;;;;;;;20.70;11.40;;;14.60;99.90;;;;;;5012545;28;20104;-70
2021/10/05 03:20:29;;;;;;;22.13;11.25;;;14.60;99.90;;;;;;5012303;28;20053;-72
2021/10/05 03:22:56;;;;;;;21.13;11.35;;;14.60;99.90;;;;;;5012417;28;20049;-70
2021/10/05 03:25:23;;;;;;;20.65;10.10;;;14.60;99.90;;;;;;5010170;28;20050;-70
2021/10/05 03:27:50;;;;;;;18.75;11.15;;;14.60;99.90;;;;;;5011641;28;20045;-73
2021/10/05 03:30:17;;;;;;;19.25;10.20;;;14.60;99.90;;;;;;5011488;28;20049;-72
2021/10/05 03:32:44;;;;;;;17.15;10.02;;;14.60;99.90;;;;;;5012014;28;20049;-70
2021/10/05 03:35:11;;;;;;;16.80;9.75;;;14.60;99.90;;;;;;5010316;28;20049;-70
2021/10/05 03:37:40;;;;;;;18.67;10.32;;;14.50;99.90;;;;;;5011416;28;20089;-70
2021/10/05 03:40:09;;;;;;;19.02;11.02;;;14.60;99.90;;;;;;5010602;28;20045;-73
2021/10/05 03:42:36;;;;;;;18.58;10.50;;;14.60;99.90;;;;;;5011240;28;20050;-71
2021/10/05 03:45:03;;;;;;;19.02;10.75;;;14.60;99.90;;;;;;5010560;28;20468;-70
2021/10/05 03:47:31;;;;;;;21.15;11.18;;;14.70;99.90;;;;;;5011064;28;20061;-70
2021/10/05 03:49:58;;;;;;;19.02;11.30;;;14.70;99.90;;;;;;5011456;28;20083;-73
2021/10/05 03:52:25;;;;;;;20.30;11.07;;;14.70;99.90;;;;;;5011603;28;20102;-70
2021/10/05 03:54:53;;;;;;;20.10;10.68;;;14.60;99.90;;;;;;5011083;28;20343;-70
2021/10/05 03:57:20;;;;;;;20.73;11.15;;;14.60;99.90;;;;;;5009991;28;20049;-74
2021/10/05 03:59:47;;;;;;;18.88;10.52;;;14.60;99.90;;;;;;5011084;28;20045;-70
2021/10/05 04:02:15;;;;;;;18.92;10.00;;;14.60;99.90;;;;;;5011397;28;20122;-73
2021/10/05 04:04:42;;;;;;;20.95;10.65;;;14.70;99.90;;;;;;5009873;28;20056;-70
2021/10/05 04:07:09;;;;;;;21.95;11.38;;;14.60;99.90;;;;;;5009891;28;20056;-70
2021/10/05 04:09:36;;;;;;;20.92;11.20;;;14.60;99.90;;;;;;5010457;28;20494;-70
2021/10/05 04:12:06;;;;;;;21.10;10.45;;;14.60;99.90;;;;;;5014117;28;20169;-70
2021/10/05 04:14:33;;;;;;;20.67;9.98;;;14.50;99.90;;;;;;5012107;28;20490;-74
2021/10/05 04:17:00;;;;;;;16.23;9.57;;;14.60;99.90;;;;;;5009678;28;20136;-73
2021/10/05 04:19:27;;;;;;;21.45;10.82;;;14.60;99.90;;;;;;5010377;28;20502;-74
2021/10/05 04:21:54;;;;;;;18.35;9.38;;;14.50;99.90;;;;;;5009849;28;20111;-70
2021/10/05 04:24:21;;;;;;;13.25;7.57;;;14.50;99.90;;;;;;5009902;28;20085;-69
2021/10/05 04:26:48;;;;;;;17.15;7.72;;;14.50;99.90;;;;;;5008784;28;20081;-73
2021/10/05 04:29:16;;;;;;;13.85;7.53;;;14.50;99.90;;;;;;5010334;28;20395;-73
2021/10/05 04:31:43;;;;;;;15.18;8.10;;;14.50;99.90;;;;;;5011778;28;20575;-72
2021/10/05 04:34:10;;;;;;;15.27;8.02;;;14.40;99.90;;;;;;5010140;28;20057;-73
2021/10/05 04:36:37;;;;;;;13.77;7.90;;;14.40;99.90;;;;;;5008101;28;20403;-71
2021/10/05 04:39:04;;;;;;;17.88;8.27;;;14.50;99.90;;;;;;5009772;28;20050;-71
2021/10/05 04:41:31;;;;;;;17.08;7.97;;;14.50;99.90;;;;;;5010102;28;20053;-69
2021/10/05 04:43:58;;;;;;;17.08;9.50;;;14.40;99.90;;;;;;5010358;28;20069;-70
2021/10/05 04:46:26;;;;;;;16.70;9.40;;;14.40;99.90;;;;;;5009424;28;20054;-69
2021/10/05 04:48:53;;;;;;;20.92;10.05;;;14.40;99.90;;;;;;5010046;28;20514;-69
2021/10/05 04:51:20;;;;;;;19.75;9.70;;;14.40;99.90;;;;;;5009465;28;20054;-71
2021/10/05 04:53:47;;;;;;;19.30;9.77;;;14.40;99.90;;;;;;5009854;28;20103;-71
2021/10/05 04:56:14;;;;;;;21.70;11.25;;;14.40;99.90;;;;;;5008485;28;20057;-75
2021/10/05 04:58:41;;;;;;;23.38;11.30;;;14.40;99.90;;;;;;5009920;28;20473;-69
2021/10/05 05:01:08;;;;;;;20.23;10.35;;;14.40;99.90;;;;;;5010221;28;20281;-70
2021/10/05 05:03:37;;;;;;;23.92;10.88;;;14.50;99.90;;;;;;5010006;28;20058;-70
2021/10/05 05:06:04;;;;;;;21.20;9.90;;;14.50;99.90;;;;;;5008554;28;21318;-72
2021/10/05 05:08:31;;;;;;;13.70;6.80;;;14.50;99.90;;;;;;5009667;28;20058;-72
2021/10/05 05:10:58;;;;;;;14.68;7.32;;;14.40;99.90;;;;;;5010414;28;20085;-72
2021/10/05 05:13:25;;;;;;;17.35;7.20;;;14.40;99.90;;;;;;5009843;28;20050;-71
2021/10/05 05:15:52;;;;;;;14.07;6.38;;;14.30;99.90;;;;;;5009585;28;20414;-75
2021/10/05 05:18:19;;;;;;;15.57;8.20;;;14.30;99.90;;;;;;5009902;28;20049;-71
2021/10/05 05:20:47;;;;;;;17.27;9.55;;;14.30;99.90;;;;;;5009687;28;20052;-70
2021/10/05 05:23:14;;;;;;;21.90;9.63;;;14.30;99.90;;;;;;5011495;28;20283;-71
2021/10/05 05:25:41;;;;;;;20.63;10.48;;;14.30;99.90;;;;;;5008649;28;20659;-72
2021/10/05 05:28:09;;;;;;;23.33;10.63;;;14.30;99.90;;;;;;5011761;28;20045;-70
2021/10/05 05:30:36;;;;;;;19.77;10.32;;;14.30;99.90;;;;;;5010127;28;20050;-71
2021/10/05 05:33:03;;;;;;;19.65;10.02;;;14.40;99.90;;;;;;5010354;28;20077;-73
2021/10/05 05:35:30;;;;;;;18.38;9.88;;;14.30;99.90;;;;;;5012258;28;20107;-73
2021/10/05 05:37:59;;;;;;;19.50;9.32;;;14.30;99.90;;;;;;5015942;28;20104;-70
2021/10/05 05:40:26;;;;;;;17.45;9.27;;;14.30;99.90;;;;;;5013163;28;20058;-71
2021/10/05 05:42:53;;;;;;;20.33;9.85;;;14.30;99.90;;;;;;5013040;28;20099;-70
2021/10/05 05:45:20;;;;;;;19.02;9.90;;;14.30;99.90;;;;;;5012972;28;20072;-72
2021/10/05 05:47:47;;;;;;;20.95;10.73;;;14.20;99.90;;;;;;5013534;28;20498;-70
2021/10/05 05:50:14;;;;;;;22.10;9.75;;;14.20;99.90;;;;;;5012835;28;20221;-70
2021/10/05 05:52:41;;;;;;;17.30;8.85;;;14.20;99.90;;;;;;5013844;28;20049;-70
2021/10/05 05:55:15;;;;;;;20.30;10.07;;;14.20;99.90;;;;;;5013757;28;20057;-70
2021/10/05 05:57:42;;;;;;;18.40;9.50;;;14.10;99.90;;;;;;5014198;28;20555;-70
2021/10/05 06:00:11;;;;;;;19.75;9.95;;;14.10;99.90;;;;;;5014078;28;20045;-71
2021/10/05 06:02:38;;;;;;;18.08;9.13;;;14.10;99.90;;;;;;5014030;28;20084;-70
2021/10/05 06:05:06;;;;;;;18.02;9.13;;;14.10;99.90;;;;;;5014262;28;20103;-75
2021/10/05 06:07:33;;;;;;;18.70;9.35;;;14.10;99.90;;;;;;5014623;28;20081;-70
2021/10/05 06:10:00;;;;;;;16.20;7.57;;;14.10;99.90;;;;;;5015309;28;20041;-70
2021/10/05 06:12:37;;;;;;;15.88;7.85;;;14.00;99.90;;;;;;5014286;28;20249;-72
2021/10/05 06:15:05;;;;;;;;;;;14.00;99.90;;;;;;5015299;28;20057;-70
2021/10/05 06:17:32;;;;;;;;;;;14.00;99.90;;;;;;5015398;28;20012;-71
2021/10/05 06:19:59;;;;;;;11.73;5.85;;;14.00;99.90;;;;;;5014761;28;20013;-70
2021/10/05 06:22:26;;;;;;;10.70;6.18;;;14.00;99.90;;;;;;5014613;28;20057;-71
2021/10/05 06:24:53;;;;;;;14.63;7.20;;;14.00;99.90;;;;;;5014676;28;20072;-71
2021/10/05 06:27:20;;;;;;;14.40;7.45;;;14.00;99.90;;;;;;5013858;28;20079;-69
2021/10/05 06:29:48;;;;;;;15.10;8.43;;;13.90;99.90;;;;;;5014840;28;20050;-73
2021/10/05 06:32:15;;;;;;;12.30;6.60;;;14.00;99.90;;;;;;5013872;28;20050;-72
2021/10/05 06:34:42;;;;;;;12.20;6.55;;;14.00;99.90;;;;;;5014388;28;20100;-71
2021/10/05 06:37:09;;;;;;;12.85;6.55;;;14.00;99.90;;;;;;5012039;28;20053;-75
2021/10/05 06:39:36;;;;;;;13.82;5.65;;;14.00;99.90;;;;;;5012669;28;20457;-69
2021/10/05 06:42:03;;;;;;;10.38;4.80;;;14.00;99.90;;;;;;5012509;28;20053;-72
2021/10/05 06:44:30;;;;;;;11.10;5.15;;;14.00;99.90;;;;;;5012275;28;20411;-71
2021/10/05 06:46:59;;;;;;;10.68;5.47;;;14.00;99.90;;;;;;5012072;28;20045;-71
2021/10/05 06:49:26;;;;;;;10.23;5.30;;;13.90;99.90;;;;;;5012931;28;20260;-71
2021/10/05 06:51:53;;;;;;;10.05;5.85;;;14.00;99.90;;;;;;5012884;28;20045;-75
2021/10/05 06:54:20;;;;;;;9.13;5.47;;;14.00;99.90;;;;;;5012953;28;20050;-71
2021/10/05 06:56:47;;;;;;;12.18;4.90;;;14.00;99.90;;;;;;5011749;28;20463;-74
2021/10/05 06:59:14;;;;;;;11.88;6.00;;;14.00;99.90;;;;;;5012052;28;20138;-71
2021/10/05 07:01:41;;;;;;;11.68;4.57;;;14.10;99.90;;;;;;5012592;28;21012;-74
2021/10/05 07:04:10;;;;;;;10.95;5.15;;;14.10;99.90;;;;;;5012527;28;20379;-71
2021/10/05 07:06:37;;;;;;;11.60;5.63;;;14.10;99.90;;;;;;5010748;28;20395;-71
2021/10/05 07:09:05;;;;;;;11.40;5.43;;;14.20;99.90;;;;;;5012440;28;20056;-71
2021/10/05 07:11:33;;;;;;;11.10;5.55;;;14.20;99.90;;;;;;5011428;28;20079;-73
2021/10/05 07:14:00;;;;;;;10.82;5.38;;;14.20;99.90;;;;;;5011400;28;20055;-72
2021/10/05 07:16:28;;;;;;;10.23;4.90;;;14.20;99.90;;;;;;5010815;28;20399;-71
2021/10/05 07:18:55;;;;;;;9.30;5.03;;;14.30;99.90;;;;;;5011054;28;20103;-71
2021/10/05 07:21:24;;;;;;;10.25;5.20;;;14.20;99.90;;;;;;5010971;28;20050;-71
2021/10/05 07:23:51;;;;;;;10.82;5.07;;;14.20;99.90;;;;;;5011818;28;20060;-71
2021/10/05 07:26:19;;;;;;;13.98;5.35;;;14.30;99.90;;;;;;5010292;28;20127;-71
2021/10/05 07:28:46;;;;;;;12.35;5.05;;;14.30;99.90;;;;;;5010979;28;20095;-70
2021/10/05 07:31:13;;;;;;;8.35;4.63;;;14.30;99.90;;;;;;5011742;28;20103;-73
2021/10/05 07:33:40;;;;;;;10.55;5.40;;;14.30;99.90;;;;;;5011133;28;20041;-71
2021/10/05 07:36:08;;;;;;;9.60;4.90;;;14.40;99.90;;;;;;5011022;28;20045;-73
2021/10/05 07:38:37;;;;;;;12.00;4.70;;;14.40;99.90;;;;;;5012214;28;20107;-71
2021/10/05 07:41:04;;;;;;;8.07;4.57;;;14.40;99.90;;;;;;5011068;28;20057;-72
2021/10/05 07:43:31;;;;;;;9.00;4.95;;;14.30;99.90;;;;;;5010971;28;20053;-71
2021/10/05 07:46:00;;;;;;;7.78;4.40;;;14.20;99.90;;;;;;5010412;28;20453;-73
2021/10/05 07:48:30;;;;;;;9.25;4.72;;;14.10;99.90;;;;;;5010661;28;20088;-70
2021/10/05 07:50:57;;;;;;;11.43;5.15;;;14.20;99.90;;;;;;5011377;28;20052;-72
2021/10/05 07:53:24;;;;;;;7.38;4.00;;;14.40;99.90;;;;;;5011019;28;20080;-70
2021/10/05 07:55:52;;;;;;;9.48;4.35;;;14.40;99.90;;;;;;5009935;28;20045;-70
2021/10/05 07:58:19;;;;;;;8.70;4.75;;;14.30;99.90;;;;;;5010457;28;20111;-70
2021/10/05 08:00:46;;;;;;;7.40;4.15;;;14.30;99.90;;;;;;5011169;28;20103;-71
2021/10/05 08:03:13;;;;;;;9.18;4.57;;;14.30;99.90;;;;;;5011472;28;20085;-71
2021/10/05 08:05:41;;;;;;;11.15;5.30;;;14.20;99.90;;;;;;5010513;28;20111;-74
2021/10/05 08:08:08;;;;;;;11.25;5.28;;;14.30;99.90;;;;;;5010437;28;20064;-72
2021/10/05 08:10:36;;;;;;;8.73;4.75;;;14.20;99.90;;;;;;5012261;28;20049;-75
2021/10/05 08:13:05;;;;;;;9.48;5.03;;;14.10;99.90;;;;;;5012130;28;20453;-71
2021/10/05 08:15:32;;;;;;;10.32;5.38;;;14.10;99.90;;;;;;5009353;28;20136;-73
2021/10/05 08:17:59;;;;;;;10.18;4.75;;;14.30;99.90;;;;;;5011180;28;20053;-73
2021/10/05 08:20:27;;;;;;;9.07;4.35;;;14.30;99.90;;;;;;5010235;28;20172;-70
2021/10/05 08:22:55;;;;;;;7.95;4.13;;;14.20;99.90;;;;;;5012531;28;20348;-71
2021/10/05 08:25:23;;;;;;;7.40;3.80;;;14.20;99.90;;;;;;5011652;28;20134;-74
2021/10/05 08:27:50;;;;;;;7.25;3.78;;;14.10;99.90;;;;;;5010993;28;20053;-71
2021/10/05 08:30:19;;;;;;;8.80;4.20;;;14.30;99.90;;;;;;5011226;28;20140;-71
2021/10/05 08:32:47;;;;;;;7.07;4.07;;;14.20;99.90;;;;;;5011768;28;20092;-75
2021/10/05 08:35:15;;;;;;;7.55;3.95;;;14.20;99.90;;;;;;5010217;28;20049;-74
2021/10/05 08:37:42;;;;;;;7.50;3.70;;;14.40;99.90;;;;;;5010291;28;20049;-73
2021/10/05 08:40:12;;;;;;;6.97;4.15;;;14.50;99.90;;;;;;5010481;28;20099;-71
2021/10/05 08:42:39;;;;;;;7.57;3.70;;;14.60;99.90;;;;;;5009627;28;20050;-71
2021/10/05 08:45:09;;;;;;;6.80;3.30;;;14.60;99.90;;;;;;5009154;28;20053;-71
2021/10/05 08:47:37;;;;;;;5.93;3.50;;;14.70;99.90;;;;;;5009537;28;20334;-72
2021/10/05 08:50:06;;;;;;;5.55;2.97;;;14.70;99.90;;;;;;5008874;28;20275;-74
2021/10/05 08:52:34;;;;;;;7.85;4.20;;;14.80;99.90;;;;;;5010107;28;20115;-71
2021/10/05 08:55:01;;;;;;;6.20;3.60;;;14.80;99.90;;;;;;5008875;28;20049;-71
2021/10/05 08:57:29;;;;;;;5.60;3.17;;;14.80;99.90;;;;;;5010929;28;20053;-71
2021/10/05 08:59:56;;;;;;;7.65;3.60;;;14.60;99.90;;;;;;5012143;28;20049;-70
2021/10/05 09:02:23;;;;;;;7.45;4.30;;;14.30;99.90;;;;;;5011537;28;20042;-70
2021/10/05 09:04:57;;;;;;;8.77;4.30;;;14.30;99.90;;;;;;5013054;28;20057;-72
2021/10/05 09:07:25;;;;;;;10.73;4.85;;;14.30;99.90;;;;;;5011258;28;20049;-73
2021/10/05 09:09:56;;;;;;;10.30;4.90;;;14.50;99.90;;;;;;5013875;28;20119;-71
2021/10/05 09:12:28;;;;;;;7.55;4.50;;;14.70;99.90;;;;;;5014020;28;20049;-71
2021/10/05 09:14:55;;;;;;;9.55;4.85;;;14.70;99.90;;;;;;5014494;28;20049;-70
2021/10/05 09:17:23;;;;;;;8.23;4.45;;;14.60;99.90;;;;;;5012835;28;20457;-73
2021/10/05 09:19:53;;;;;;;7.70;4.05;;;14.50;99.90;;;;;;5014364;28;20107;-75
2021/10/05 09:22:25;;;;;;;7.20;3.70;;;14.40;99.90;;;;;;5015132;28;20049;-70
2021/10/05 09:24:54;;;;;;;8.77;3.38;;;14.40;99.90;;;;;;5014129;28;20924;-71
2021/10/05 09:27:22;;;;;;;7.22;3.50;;;14.50;99.90;;;;;;5012861;28;20099;-72
2021/10/05 09:29:50;;;;;;;5.45;3.20;;;14.60;99.90;;;;;;5013298;28;20045;-74
2021/10/05 09:32:19;;;;;;;4.45;2.63;;;14.60;99.90;;;;;;5013052;28;20084;-74
2021/10/05 09:34:50;;;;;;;5.10;2.35;;;14.60;99.90;;;;;;5013319;28;20075;-71
2021/10/05 09:37:21;;;;;;;5.63;2.47;;;14.60;99.90;;;;;;5012680;28;20041;-70
2021/10/05 09:39:51;;;;;;;3.95;2.03;;;14.60;99.90;;;;;;5013841;28;20095;-75
2021/10/05 09:42:24;;;;;;;4.10;2.03;;;14.60;99.90;;;;;;5012490;28;20084;-72
2021/10/05 09:44:56;;;;;;;5.50;2.20;;;14.70;99.90;;;;;;5012025;28;20088;-71
2021/10/05 09:47:37;;;;;;;5.53;2.25;;;14.80;99.90;;;;;;5011890;28;20057;-70
2021/10/05 09:50:09;;;;;;;6.38;2.13;;;14.80;99.90;;;;;;5013125;28;20406;-73
2021/10/05 09:52:43;;;;;;;11.20;2.33;;;14.80;99.90;;;;;;5012430;28;20060;-73
2021/10/05 09:55:11;;;;;;;3.65;2.15;;;15.00;99.90;;;;;;5012226;28;20085;-70
2021/10/05 09:57:39;;;;;;;3.70;1.75;;;15.00;99.90;;;;;;5012246;28;20532;-70
2021/10/05 10:00:07;;;;;;;4.55;1.98;;;15.20;99.90;;;;;;5013042;28;20095;-70
2021/10/05 10:02:37;;;;;;;4.75;2.42;;;15.10;99.90;;;;;;5012606;28;20053;-70
2021/10/05 10:05:06;;;;;;;3.40;2.08;;;15.20;99.90;;;;;;5012162;28;20520;-70
2021/10/05 10:07:38;;;;;;;3.88;1.90;;;15.40;99.90;;;;;;5013022;28;20049;-71
2021/10/05 10:10:10;;;;;;;2.75;1.75;;;15.60;99.90;;;;;;5012426;28;20045;-70
2021/10/05 10:12:38;;;;;;;3.58;1.90;;;15.40;99.90;;;;;;5013011;28;20049;-72
2021/10/05 10:15:08;;;;;;;2.78;1.67;;;15.40;99.90;;;;;;5012700;28;20056;-70
2021/10/05 10:17:35;;;;;;;3.72;1.70;;;15.10;99.90;;;;;;5012345;28;21139;-73
2021/10/05 10:20:03;;;;;;;4.85;2.00;;;15.10;99.90;;;;;;5012367;28;20124;-72
2021/10/05 10:22:30;;;;;;;3.22;1.67;;;15.00;99.90;;;;;;5013003;28;20049;-71
2021/10/05 10:24:57;;;;;;;3.78;1.95;;;15.10;99.90;;;;;;5012503;28;20490;-71
2021/10/05 10:27:27;;;;;;;3.17;1.80;;;14.90;99.90;;;;;;5013149;28;20136;-72
2021/10/05 10:29:55;;;;;;;2.78;1.60;;;14.80;99.90;;;;;;5012713;28;20140;-71
2021/10/05 10:32:24;;;;;;;3.85;1.70;;;14.90;99.90;;;;;;5011879;28;20506;-71
2021/10/05 10:35:04;;;;;;;3.28;1.92;;;15.00;99.90;;;;;;5012300;28;20053;-71
2021/10/05 10:37:43;;;;;;;2.78;1.55;;;15.10;99.90;;;;;;5009692;28;20053;-74
2021/10/05 10:40:12;;;;;;;2.72;1.50;;;15.00;99.90;;;;;;5012048;28;20041;-74
2021/10/05 10:42:41;;;;;;;3.28;1.70;;;15.00;99.90;;;;;;5012202;28;20464;-70
2021/10/05 10:45:13;;;;;;;9.35;1.63;;;15.00;99.90;;;;;;5012031;28;20469;-73
2021/10/05 10:47:41;;;;;;;2.30;1.50;;;14.90;99.90;;;;;;5012680;28;20045;-74
2021/10/05 10:50:10;;;;;;;2.05;1.23;;;14.90;99.90;;;;;;5010438;28;20045;-75
2021/10/05 10:52:41;;;;;;;3.47;1.85;;;14.70;99.90;;;;;;5003978;28;20500;-71
2021/10/05 10:55:10;;;;;;;2.42;1.40;;;14.80;99.90;;;;;;5002252;28;20498;-73
2021/10/05 10:57:38;;;;;;;3.00;1.75;;;14.80;99.90;;;;;;5006662;28;20674;-74
2021/10/05 11:00:20;;;;;;;2.25;1.40;;;14.90;99.90;;;;;;5005889;28;20603;-71
2021/10/05 11:02:49;;;;;;;2.75;1.50;;;15.10;99.90;;;;;;5006035;28;20729;-74
2021/10/05 11:05:19;;;;;;;2.63;1.45;;;15.00;99.90;;;;;;5005311;28;20045;-73
2021/10/05 11:07:46;;;;;;;2.65;1.33;;;15.10;99.90;;;;;;5007776;28;20140;-71
2021/10/05 11:10:13;;;;;;;1.83;1.27;;;15.00;99.90;;;;;;5011623;28;20049;-70
2021/10/05 11:12:50;;;;;;;1.90;1.13;;;14.90;99.90;;;;;;5012662;28;20056;-72
2021/10/05 11:15:31;;;;;;;3.95;1.20;;;14.80;99.90;;;;;;5012038;28;20057;-71
2021/10/05 11:18:04;;;;;;;1.55;1.00;;;14.90;99.90;;;;;;5012533;28;20068;-73
2021/10/05 11:20:31;;;;;;;1.95;1.15;;;15.30;99.90;;;;;;5011746;28;20074;-71
2021/10/05 11:23:00;;;;;;;2.25;1.23;;;15.70;99.90;;;;;;5010883;28;20041;-71
2021/10/05 11:25:27;;;;;;;1.77;1.20;;;15.40;99.90;;;;;;5010064;28;20088;-72
2021/10/05 11:27:54;;;;;;;2.40;1.02;;;15.50;99.90;;;;;;5011214;28;20506;-71
2021/10/05 11:30:23;;;;;;;2.05;1.13;;;15.90;99.90;;;;;;5008986;28;20096;-73
2021/10/05 11:32:50;;;;;;;1.40;1.08;;;15.70;99.90;;;;;;5011273;28;20053;-71
2021/10/05 11:35:17;;;;;;;2.17;1.35;;;15.50;99.90;;;;;;5009994;28;20529;-71
2021/10/05 11:37:44;;;;;;;2.30;1.30;;;15.60;99.90;;;;;;5010802;28;20049;-71
2021/10/05 11:40:12;;;;;;;3.45;1.60;;;15.60;99.90;;;;;;5011747;28;20387;-72
2021/10/05 11:42:39;;;;;;;3.08;1.73;;;15.50;99.90;;;;;;5015524;28;20096;-71
2021/10/05 11:45:08;;;;;;;4.88;1.95;;;15.40;99.90;;;;;;5017241;28;20111;-70
2021/10/05 11:47:37;;;;;;;2.45;1.80;;;15.40;99.90;;;;;;5016418;28;20096;-74
2021/10/05 11:50:07;;;;;;;3.05;1.90;;;15.70;99.90;;;;;;5015688;28;20050;-70
2021/10/05 11:52:39;;;;;;;2.90;1.92;;;16.50;99.90;;;;;;5017650;28;20087;-72
2021/10/05 11:55:07;;;;;;;2.60;1.75;;;17.40;99.90;;;;;;5016698;28;20160;-71
2021/10/05 11:57:36;;;;;;;3.25;1.67;;;17.10;99.90;;;;;;5017167;28;20103;-71
2021/10/05 12:00:07;;;;;;;5.20;2.00;;;16.80;99.90;;;;;;5016836;28;20351;-74
2021/10/05 12:02:40;;;;;;;3.03;1.70;;;16.50;99.90;;;;;;5013402;28;20096;-73
2021/10/05 12:05:09;;;;;;;3.53;2.45;;;16.40;99.90;;;;;;5016602;28;20053;-71
2021/10/05 12:07:38;;;;;;;4.45;2.00;;;16.10;99.90;;;;;;5015738;28;20056;-72
2021/10/05 12:10:07;;;;;;;3.35;2.30;;;16.10;99.90;;;;;;5014211;28;20073;-69
2021/10/05 12:12:35;;;;;;;3.92;2.60;;;16.00;99.90;;;;;;5014995;28;20517;-70
2021/10/05 12:15:06;;;;;;;2.92;2.05;;;15.60;99.90;;;;;;5014038;28;20053;-70
2021/10/05 12:17:33;;;;;;;3.95;2.60;;;15.70;99.90;;;;;;5016939;28;20053;-70
2021/10/05 12:20:03;;;;;;;6.65;2.50;;;15.70;99.90;;;;;;5017116;28;20223;-71
2021/10/05 12:22:34;;;;;;;3.80;2.47;;;15.90;99.90;;;;;;5015434;28;20136;-70
2021/10/05 12:25:03;;;;;;;5.55;2.80;;;16.30;99.90;;;;;;5012881;28;20049;-72
2021/10/05 12:27:39;;;;;;;6.68;3.17;;;16.20;99.90;;;;;;5011901;28;20151;-70
2021/10/05 12:30:10;;;;;;;4.72;2.40;;;16.50;99.90;;;;;;5012106;28;20115;-70
2021/10/05 12:32:40;;;;;;;7.78;2.70;;;16.90;99.90;;;;;;5011875;28;20046;-70
2021/10/05 12:35:19;;;;;;;5.38;2.35;;;17.00;99.90;;;;;;5011726;28;20053;-69
2021/10/05 12:37:47;;;;;;;3.30;1.80;;;16.80;99.90;;;;;;5013819;28;20612;-70
2021/10/05 12:40:14;;;;;;;3.78;1.73;;;16.80;99.90;;;;;;5012228;28;20471;-70
2021/10/05 12:42:45;;;;;;;2.38;1.35;;;16.70;99.90;;;;;;5013301;28;20049;-70
2021/10/05 12:45:15;;;;;;;3.17;1.75;;;16.60;99.90;;;;;;5011765;28;20490;-70